sensor_id;sensor_type;location;lat;lon;timestamp;temperature;humidity
22185;DHT22;11258;52.516;13.318;2023-04-22T00:00:57;14.00;99.90
22185;DHT22;11258;52.516;13.318;2023-04-22T00:03:23;13.90;99.90
22185;DHT22;11258;52.516;13.318;2023-04-22T00:05:48;13.80;99.90
22185;DHT22;11258;52.516;13.318;2023-04-22T00:08:14;13.80;99.90
22185;DHT22;11258;52.516;13.318;2023-04-22T00:10:40;13.80;99.90
22185;DHT22;11258;52.516;13.318;2023-04-22T00:13:05;13.80;99.90
22185;DHT22;11258;52.516;13.318;2023-04-22T00:15:31;13.90;99.90
22185;DHT22;11258;52.516;13.318;2023-04-22T00:17:57;13.90;99.90
22185;DHT22;11258;52.516;13.318;2023-04-22T00:20:23;13.90;99.90
22185;DHT22;11258;52.516;13.318;2023-04-22T00:22:50;13.80;99.90
22185;DHT22;11258;52.516;13.318;2023-04-22T00:25:15;13.80;99.90
22185;DHT22;11258;52.516;13.318;2023-04-22T00:27:41;13.80;99.90
22185;DHT22;11258;52.516;13.318;2023-04-22T00:30:07;13.80;99.90
22185;DHT22;11258;52.516;13.318;2023-04-22T00:32:34;13.70;99.90
22185;DHT22;11258;52.516;13.318;2023-04-22T00:35:00;13.70;99.90
22185;DHT22;11258;52.516;13.318;2023-04-22T00:37:25;13.60;99.90
22185;DHT22;11258;52.516;13.318;2023-04-22T00:39:51;13.60;99.90
22185;DHT22;11258;52.516;13.318;2023-04-22T00:42:17;13.60;99.90
22185;DHT22;11258;52.516;13.318;2023-04-22T00:44:43;13.60;99.90
22185;DHT22;11258;52.516;13.318;2023-04-22T00:47:11;13.50;99.90
22185;DHT22;11258;52.516;13.318;2023-04-22T00:49:37;13.40;99.90
22185;DHT22;11258;52.516;13.318;2023-04-22T00:52:03;13.50;99.90
22185;DHT22;11258;52.516;13.318;2023-04-22T00:54:29;13.40;99.90
22185;DHT22;11258;52.516;13.318;2023-04-22T00:56:55;13.30;99.90
22185;DHT22;11258;52.516;13.318;2023-04-22T00:59:23;13.30;99.90
22185;DHT22;11258;52.516;13.318;2023-04-22T01:01:50;13.30;99.90
22185;DHT22;11258;52.516;13.318;2023-04-22T01:04:16;13.30;99.90
22185;DHT22;11258;52.516;13.318;2023-04-22T01:06:42;13.30;99.90
22185;DHT22;11258;52.516;13.318;2023-04-22T01:09:08;13.20;99.90
22185;DHT22;11258;52.516;13.318;2023-04-22T01:11:34;13.30;99.90
22185;DHT22;11258;52.516;13.318;2023-04-22T01:14:02;13.20;99.90
22185;DHT22;11258;52.516;13.318;2023-04-22T01:16:29;13.20;99.90
22185;DHT22;11258;52.516;13.318;2023-04-22T01:18:55;13.30;99.90
22185;DHT22;11258;52.516;13.318;2023-04-22T01:21:21;13.20;99.90
22185;DHT22;11258;52.516;13.318;2023-04-22T01:23:48;13.20;99.90
22185;DHT22;11258;52.516;13.318;2023-04-22T01:26:15;13.20;99.90
22185;DHT22;11258;52.516;13.318;2023-04-22T01:28:41;13.30;99.90
22185;DHT22;11258;52.516;13.318;2023-04-22T01:31:07;13.20;99.90
22185;DHT22;11258;52.516;13.318;2023-04-22T01:33:33;13.20;99.90
22185;DHT22;11258;52.516;13.318;2023-04-22T01:35:59;13.10;99.90
22185;DHT22;11258;52.516;13.318;2023-04-22T01:38:25;13.10;99.90
22185;DHT22;11258;52.516;13.318;2023-04-22T01:40:51;13.00;99.90
22185;DHT22;11258;52.516;13.318;2023-04-22T01:43:16;13.10;99.90
22185;DHT22;11258;52.516;13.318;2023-04-22T01:45:42;13.00;99.90
22185;DHT22;11258;52.516;13.318;2023-04-22T01:48:08;13.00;99.90
22185;DHT22;11258;52.516;13.318;2023-04-22T01:50:33;13.00;99.90
22185;DHT22;11258;52.516;13.318;2023-04-22T01:52:59;13.00;99.90
22185;DHT22;11258;52.516;13.318;2023-04-22T01:55:25;13.00;99.90
22185;DHT22;11258;52.516;13.318;2023-04-22T01:57:51;12.90;99.90
22185;DHT22;11258;52.516;13.318;2023-04-22T02:00:17;12.90;99.90
22185;DHT22;11258;52.516;13.318;2023-04-22T02:02:43;12.90;99.90
22185;DHT22;11258;52.516;13.318;2023-04-22T02:05:08;12.80;99.90
22185;DHT22;11258;52.516;13.318;2023-04-22T02:07:34;12.90;99.90
22185;DHT22;11258;52.516;13.318;2023-04-22T02:10:01;12.80;99.90
22185;DHT22;11258;52.516;13.318;2023-04-22T02:12:29;12.70;99.90
22185;DHT22;11258;52.516;13.318;2023-04-22T02:14:55;12.70;99.90
22185;DHT22;11258;52.516;13.318;2023-04-22T02:17:21;12.60;99.90
22185;DHT22;11258;52.516;13.318;2023-04-22T02:19:46;12.70;99.90
22185;DHT22;11258;52.516;13.318;2023-04-22T02:22:12;12.70;99.90
22185;DHT22;11258;52.516;13.318;2023-04-22T02:24:37;12.70;99.90
22185;DHT22;11258;52.516;13.318;2023-04-22T02:27:03;12.80;99.90
22185;DHT22;11258;52.516;13.318;2023-04-22T02:29:29;12.80;99.90
22185;DHT22;11258;52.516;13.318;2023-04-22T02:31:57;12.70;99.90
22185;DHT22;11258;52.516;13.318;2023-04-22T02:34:23;12.70;99.90
22185;DHT22;11258;52.516;13.318;2023-04-22T02:36:48;12.60;99.90
22185;DHT22;11258;52.516;13.318;2023-04-22T02:39:14;12.60;99.90
22185;DHT22;11258;52.516;13.318;2023-04-22T02:41:39;12.60;99.90
22185;DHT22;11258;52.516;13.318;2023-04-22T02:44:05;12.50;99.90
22185;DHT22;11258;52.516;13.318;2023-04-22T02:46:31;12.50;99.90
22185;DHT22;11258;52.516;13.318;2023-04-22T02:48:56;12.50;99.90
22185;DHT22;11258;52.516;13.318;2023-04-22T02:51:22;12.50;99.90
22185;DHT22;11258;52.516;13.318;2023-04-22T02:53:48;12.40;99.90
22185;DHT22;11258;52.516;13.318;2023-04-22T02:56:13;12.40;99.90
22185;DHT22;11258;52.516;13.318;2023-04-22T02:58:39;12.40;99.90
22185;DHT22;11258;52.516;13.318;2023-04-22T03:01:05;12.40;99.90
22185;DHT22;11258;52.516;13.318;2023-04-22T03:03:30;12.30;99.90
22185;DHT22;11258;52.516;13.318;2023-04-22T03:05:56;12.20;99.90
22185;DHT22;11258;52.516;13.318;2023-04-22T03:08:22;12.30;99.90
22185;DHT22;11258;52.516;13.318;2023-04-22T03:10:47;12.20;99.90
22185;DHT22;11258;52.516;13.318;2023-04-22T03:13:13;12.10;99.90
22185;DHT22;11258;52.516;13.318;2023-04-22T03:15:40;12.00;99.90
22185;DHT22;11258;52.516;13.318;2023-04-22T03:18:06;12.00;99.90
22185;DHT22;11258;52.516;13.318;2023-04-22T03:20:31;12.10;99.90
22185;DHT22;11258;52.516;13.318;2023-04-22T03:22:57;12.10;99.90
22185;DHT22;11258;52.516;13.318;2023-04-22T03:25:23;12.10;99.90
22185;DHT22;11258;52.516;13.318;2023-04-22T03:27:49;12.10;99.90
22185;DHT22;11258;52.516;13.318;2023-04-22T03:30:14;12.00;99.90
22185;DHT22;11258;52.516;13.318;2023-04-22T03:32:40;11.90;99.90
22185;DHT22;11258;52.516;13.318;2023-04-22T03:35:06;11.90;99.90
22185;DHT22;11258;52.516;13.318;2023-04-22T03:37:31;11.90;99.90
22185;DHT22;11258;52.516;13.318;2023-04-22T03:39:57;11.80;99.90
22185;DHT22;11258;52.516;13.318;2023-04-22T03:42:23;11.90;99.90
22185;DHT22;11258;52.516;13.318;2023-04-22T03:44:48;11.80;99.90
22185;DHT22;11258;52.516;13.318;2023-04-22T03:47:14;11.80;99.90
22185;DHT22;11258;52.516;13.318;2023-04-22T03:49:39;11.80;99.90
22185;DHT22;11258;52.516;13.318;2023-04-22T03:52:05;11.80;99.90
22185;DHT22;11258;52.516;13.318;2023-04-22T03:54:31;11.70;99.90
22185;DHT22;11258;52.516;13.318;2023-04-22T03:56:56;11.70;99.90
22185;DHT22;11258;52.516;13.318;2023-04-22T03:59:22;11.80;99.90
22185;DHT22;11258;52.516;13.318;2023-04-22T04:01:50;11.80;99.90
22185;DHT22;11258;52.516;13.318;2023-04-22T04:04:16;11.70;99.90
22185;DHT22;11258;52.516;13.318;2023-04-22T04:06:41;11.80;99.90
22185;DHT22;11258;52.516;13.318;2023-04-22T04:09:07;11.70;99.90
22185;DHT22;11258;52.516;13.318;2023-04-22T04:11:32;11.70;99.90
22185;DHT22;11258;52.516;13.318;2023-04-22T04:13:58;11.70;99.90
22185;DHT22;11258;52.516;13.318;2023-04-22T04:16:23;11.70;99.90
22185;DHT22;11258;52.516;13.318;2023-04-22T04:18:50;11.60;99.90
22185;DHT22;11258;52.516;13.318;2023-04-22T04:21:16;11.70;99.90
22185;DHT22;11258;52.516;13.318;2023-04-22T04:23:41;11.70;99.90
22185;DHT22;11258;52.516;13.318;2023-04-22T04:26:07;11.70;99.90
22185;DHT22;11258;52.516;13.318;2023-04-22T04:28:33;11.80;99.90
22185;DHT22;11258;52.516;13.318;2023-04-22T04:30:59;11.70;99.90
22185;DHT22;11258;52.516;13.318;2023-04-22T04:33:27;11.70;99.90
22185;DHT22;11258;52.516;13.318;2023-04-22T04:35:53;12.00;99.90
22185;DHT22;11258;52.516;13.318;2023-04-22T04:38:19;12.70;99.90
22185;DHT22;11258;52.516;13.318;2023-04-22T04:40:44;13.20;99.90
22185;DHT22;11258;52.516;13.318;2023-04-22T04:43:10;13.50;99.90
22185;DHT22;11258;52.516;13.318;2023-04-22T04:45:37;13.60;99.90
22185;DHT22;11258;52.516;13.318;2023-04-22T04:48:04;13.60;99.90
22185;DHT22;11258;52.516;13.318;2023-04-22T04:50:31;13.80;99.90
22185;DHT22;11258;52.516;13.318;2023-04-22T04:52:57;14.00;99.90
22185;DHT22;11258;52.516;13.318;2023-04-22T04:55:23;14.40;99.90
22185;DHT22;11258;52.516;13.318;2023-04-22T04:57:48;14.40;99.90
22185;DHT22;11258;52.516;13.318;2023-04-22T05:00:14;15.30;99.90
22185;DHT22;11258;52.516;13.318;2023-04-22T05:02:40;15.50;99.90
22185;DHT22;11258;52.516;13.318;2023-04-22T05:05:06;16.00;99.90
22185;DHT22;11258;52.516;13.318;2023-04-22T05:07:32;15.70;99.90
22185;DHT22;11258;52.516;13.318;2023-04-22T05:09:59;16.10;99.90
22185;DHT22;11258;52.516;13.318;2023-04-22T05:12:25;16.00;99.90
22185;DHT22;11258;52.516;13.318;2023-04-22T05:14:51;16.00;99.90
22185;DHT22;11258;52.516;13.318;2023-04-22T05:17:18;16.30;99.90
22185;DHT22;11258;52.516;13.318;2023-04-22T05:19:44;16.30;99.90
22185;DHT22;11258;52.516;13.318;2023-04-22T05:22:09;16.60;99.90
22185;DHT22;11258;52.516;13.318;2023-04-22T05:24:35;16.50;99.90
22185;DHT22;11258;52.516;13.318;2023-04-22T05:27:02;16.80;99.90
22185;DHT22;11258;52.516;13.318;2023-04-22T05:29:27;17.20;99.90
22185;DHT22;11258;52.516;13.318;2023-04-22T05:31:53;17.00;99.90
22185;DHT22;11258;52.516;13.318;2023-04-22T05:34:19;17.20;99.90
22185;DHT22;11258;52.516;13.318;2023-04-22T05:36:44;17.60;99.90
22185;DHT22;11258;52.516;13.318;2023-04-22T05:39:10;18.00;99.90
22185;DHT22;11258;52.516;13.318;2023-04-22T05:41:37;17.70;99.90
22185;DHT22;11258;52.516;13.318;2023-04-22T05:44:02;18.10;99.90
22185;DHT22;11258;52.516;13.318;2023-04-22T05:46:28;18.50;99.90
22185;DHT22;11258;52.516;13.318;2023-04-22T05:48:54;18.60;99.90
22185;DHT22;11258;52.516;13.318;2023-04-22T05:51:21;18.50;99.90
22185;DHT22;11258;52.516;13.318;2023-04-22T05:53:48;18.60;99.90
22185;DHT22;11258;52.516;13.318;2023-04-22T05:56:13;19.00;99.90
22185;DHT22;11258;52.516;13.318;2023-04-22T05:58:39;18.90;99.90
22185;DHT22;11258;52.516;13.318;2023-04-22T06:01:05;19.60;99.90
22185;DHT22;11258;52.516;13.318;2023-04-22T06:03:30;19.70;99.90
22185;DHT22;11258;52.516;13.318;2023-04-22T06:05:56;19.70;99.90
22185;DHT22;11258;52.516;13.318;2023-04-22T06:08:22;19.70;99.90
22185;DHT22;11258;52.516;13.318;2023-04-22T06:10:47;19.10;99.90
22185;DHT22;11258;52.516;13.318;2023-04-22T06:13:13;19.10;99.90
22185;DHT22;11258;52.516;13.318;2023-04-22T06:15:38;20.10;99.90
22185;DHT22;11258;52.516;13.318;2023-04-22T06:18:04;20.10;99.90
22185;DHT22;11258;52.516;13.318;2023-04-22T06:20:30;18.90;99.90
22185;DHT22;11258;52.516;13.318;2023-04-22T06:23:00;19.10;99.90
22185;DHT22;11258;52.516;13.318;2023-04-22T06:25:26;20.10;99.90
22185;DHT22;11258;52.516;13.318;2023-04-22T06:27:51;20.00;99.90
22185;DHT22;11258;52.516;13.318;2023-04-22T06:30:17;21.20;99.90
22185;DHT22;11258;52.516;13.318;2023-04-22T06:32:43;21.00;98.60
22185;DHT22;11258;52.516;13.318;2023-04-22T06:35:08;20.40;99.50
22185;DHT22;11258;52.516;13.318;2023-04-22T06:37:34;20.70;99.10
22185;DHT22;11258;52.516;13.318;2023-04-22T06:40:01;20.60;98.50
22185;DHT22;11258;52.516;13.318;2023-04-22T06:42:26;20.30;98.50
22185;DHT22;11258;52.516;13.318;2023-04-22T06:44:52;20.20;99.10
22185;DHT22;11258;52.516;13.318;2023-04-22T06:47:18;21.40;98.20
22185;DHT22;11258;52.516;13.318;2023-04-22T06:49:44;21.20;98.00
22185;DHT22;11258;52.516;13.318;2023-04-22T06:52:09;21.00;97.60
22185;DHT22;11258;52.516;13.318;2023-04-22T06:54:36;21.10;97.70
22185;DHT22;11258;52.516;13.318;2023-04-22T06:57:02;21.30;97.20
22185;DHT22;11258;52.516;13.318;2023-04-22T06:59:28;21.60;97.30
22185;DHT22;11258;52.516;13.318;2023-04-22T07:01:54;21.60;96.10
22185;DHT22;11258;52.516;13.318;2023-04-22T07:04:19;22.10;96.50
22185;DHT22;11258;52.516;13.318;2023-04-22T07:06:45;21.80;95.50
22185;DHT22;11258;52.516;13.318;2023-04-22T07:09:11;21.50;95.60
22185;DHT22;11258;52.516;13.318;2023-04-22T07:11:37;22.00;95.30
22185;DHT22;11258;52.516;13.318;2023-04-22T07:14:02;21.10;95.20
22185;DHT22;11258;52.516;13.318;2023-04-22T07:16:28;21.00;95.80
22185;DHT22;11258;52.516;13.318;2023-04-22T07:18:53;20.70;96.50
22185;DHT22;11258;52.516;13.318;2023-04-22T07:21:19;21.30;96.30
22185;DHT22;11258;52.516;13.318;2023-04-22T07:23:45;22.60;95.60
22185;DHT22;11258;52.516;13.318;2023-04-22T07:26:11;23.10;94.20
22185;DHT22;11258;52.516;13.318;2023-04-22T07:28:36;23.10;93.30
22185;DHT22;11258;52.516;13.318;2023-04-22T07:31:02;22.80;93.70
22185;DHT22;11258;52.516;13.318;2023-04-22T07:33:28;22.30;93.80
22185;DHT22;11258;52.516;13.318;2023-04-22T07:35:53;22.60;93.90
22185;DHT22;11258;52.516;13.318;2023-04-22T07:38:19;23.40;94.00
22185;DHT22;11258;52.516;13.318;2023-04-22T07:40:45;24.70;92.40
22185;DHT22;11258;52.516;13.318;2023-04-22T07:43:11;24.80;91.90
22185;DHT22;11258;52.516;13.318;2023-04-22T07:45:36;25.10;90.70
22185;DHT22;11258;52.516;13.318;2023-04-22T07:48:03;24.30;91.00
22185;DHT22;11258;52.516;13.318;2023-04-22T07:50:28;23.70;91.60
22185;DHT22;11258;52.516;13.318;2023-04-22T07:52:54;22.90;92.60
22185;DHT22;11258;52.516;13.318;2023-04-22T07:55:20;23.40;92.70
22185;DHT22;11258;52.516;13.318;2023-04-22T07:57:45;24.10;92.90
22185;DHT22;11258;52.516;13.318;2023-04-22T08:00:11;24.20;92.30
22185;DHT22;11258;52.516;13.318;2023-04-22T08:02:37;24.40;91.80
22185;DHT22;11258;52.516;13.318;2023-04-22T08:05:03;24.60;91.50
22185;DHT22;11258;52.516;13.318;2023-04-22T08:07:29;24.70;91.80
22185;DHT22;11258;52.516;13.318;2023-04-22T08:09:55;24.60;91.00
22185;DHT22;11258;52.516;13.318;2023-04-22T08:12:21;24.40;91.50
22185;DHT22;11258;52.516;13.318;2023-04-22T08:14:46;24.60;91.00
22185;DHT22;11258;52.516;13.318;2023-04-22T08:17:12;22.80;91.10
22185;DHT22;11258;52.516;13.318;2023-04-22T08:19:38;21.70;92.50
22185;DHT22;11258;52.516;13.318;2023-04-22T08:22:03;21.50;93.10
22185;DHT22;11258;52.516;13.318;2023-04-22T08:24:29;21.30;93.40
22185;DHT22;11258;52.516;13.318;2023-04-22T08:26:54;21.40;94.10
22185;DHT22;11258;52.516;13.318;2023-04-22T08:29:21;21.40;93.80
22185;DHT22;11258;52.516;13.318;2023-04-22T08:31:46;21.30;94.00
22185;DHT22;11258;52.516;13.318;2023-04-22T08:34:12;21.70;94.00
22185;DHT22;11258;52.516;13.318;2023-04-22T08:36:37;21.90;93.70
22185;DHT22;11258;52.516;13.318;2023-04-22T08:39:03;21.20;93.50
22185;DHT22;11258;52.516;13.318;2023-04-22T08:41:29;21.30;94.10
22185;DHT22;11258;52.516;13.318;2023-04-22T08:43:58;21.00;94.00
22185;DHT22;11258;52.516;13.318;2023-04-22T08:46:24;21.70;94.10
22185;DHT22;11258;52.516;13.318;2023-04-22T08:48:51;21.50;93.60
22185;DHT22;11258;52.516;13.318;2023-04-22T08:51:18;21.90;94.00
22185;DHT22;11258;52.516;13.318;2023-04-22T08:53:44;21.40;94.40
22185;DHT22;11258;52.516;13.318;2023-04-22T08:56:13;21.20;94.30
22185;DHT22;11258;52.516;13.318;2023-04-22T08:58:40;21.30;95.10
22185;DHT22;11258;52.516;13.318;2023-04-22T09:01:07;21.40;95.20
22185;DHT22;11258;52.516;13.318;2023-04-22T09:03:38;21.90;95.00
22185;DHT22;11258;52.516;13.318;2023-04-22T09:06:04;21.90;94.50
22185;DHT22;11258;52.516;13.318;2023-04-22T09:08:33;21.40;94.60
22185;DHT22;11258;52.516;13.318;2023-04-22T09:10:59;20.90;95.80
22185;DHT22;11258;52.516;13.318;2023-04-22T09:13:25;21.30;96.20
22185;DHT22;11258;52.516;13.318;2023-04-22T09:15:51;21.10;96.00
22185;DHT22;11258;52.516;13.318;2023-04-22T09:18:17;21.30;96.10
22185;DHT22;11258;52.516;13.318;2023-04-22T09:20:46;21.10;96.30
22185;DHT22;11258;52.516;13.318;2023-04-22T09:23:12;21.50;96.00
22185;DHT22;11258;52.516;13.318;2023-04-22T09:25:38;21.90;95.80
22185;DHT22;11258;52.516;13.318;2023-04-22T09:28:05;21.90;95.30
22185;DHT22;11258;52.516;13.318;2023-04-22T09:30:35;21.90;95.30
22185;DHT22;11258;52.516;13.318;2023-04-22T09:33:03;21.50;95.60
22185;DHT22;11258;52.516;13.318;2023-04-22T09:35:34;21.20;96.00
22185;DHT22;11258;52.516;13.318;2023-04-22T09:38:01;20.90;96.00
22185;DHT22;11258;52.516;13.318;2023-04-22T09:40:28;21.00;96.50
22185;DHT22;11258;52.516;13.318;2023-04-22T09:42:56;21.20;96.70
22185;DHT22;11258;52.516;13.318;2023-04-22T09:45:33;21.20;96.70
22185;DHT22;11258;52.516;13.318;2023-04-22T09:50:33;21.50;96.50
22185;DHT22;11258;52.516;13.318;2023-04-22T09:53:00;21.70;96.10
22185;DHT22;11258;52.516;13.318;2023-04-22T09:55:28;21.20;96.40
22185;DHT22;11258;52.516;13.318;2023-04-22T09:57:56;21.30;96.80
22185;DHT22;11258;52.516;13.318;2023-04-22T10:00:29;21.40;96.40
22185;DHT22;11258;52.516;13.318;2023-04-22T10:02:55;21.40;96.00
22185;DHT22;11258;52.516;13.318;2023-04-22T10:05:21;21.60;96.10
22185;DHT22;11258;52.516;13.318;2023-04-22T10:07:46;21.50;96.50
22185;DHT22;11258;52.516;13.318;2023-04-22T10:10:12;21.30;96.60
22185;DHT22;11258;52.516;13.318;2023-04-22T10:12:38;21.50;96.90
22185;DHT22;11258;52.516;13.318;2023-04-22T10:15:05;21.70;96.50
22185;DHT22;11258;52.516;13.318;2023-04-22T10:17:32;21.70;95.50
22185;DHT22;11258;52.516;13.318;2023-04-22T10:20:02;21.40;94.60
22185;DHT22;11258;52.516;13.318;2023-04-22T10:22:30;21.40;95.30
22185;DHT22;11258;52.516;13.318;2023-04-22T10:24:57;21.60;95.90
22185;DHT22;11258;52.516;13.318;2023-04-22T10:27:22;21.60;95.40
22185;DHT22;11258;52.516;13.318;2023-04-22T10:29:49;21.50;95.60
22185;DHT22;11258;52.516;13.318;2023-04-22T10:34:47;21.70;94.40
22185;DHT22;11258;52.516;13.318;2023-04-22T10:37:16;22.00;94.30
22185;DHT22;11258;52.516;13.318;2023-04-22T10:39:42;21.90;94.70
22185;DHT22;11258;52.516;13.318;2023-04-22T10:42:28;21.70;95.10
22185;DHT22;11258;52.516;13.318;2023-04-22T10:45:00;21.50;93.60
22185;DHT22;11258;52.516;13.318;2023-04-22T10:47:36;21.80;93.30
22185;DHT22;11258;52.516;13.318;2023-04-22T10:52:41;21.60;92.40
22185;DHT22;11258;52.516;13.318;2023-04-22T10:55:07;21.50;93.10
22185;DHT22;11258;52.516;13.318;2023-04-22T10:57:44;21.40;93.10
22185;DHT22;11258;52.516;13.318;2023-04-22T11:00:23;21.40;93.70
22185;DHT22;11258;52.516;13.318;2023-04-22T11:03:06;21.30;91.40
22185;DHT22;11258;52.516;13.318;2023-04-22T11:05:35;21.50;91.40
22185;DHT22;11258;52.516;13.318;2023-04-22T11:08:03;21.40;92.00
22185;DHT22;11258;52.516;13.318;2023-04-22T11:10:41;21.40;91.80
22185;DHT22;11258;52.516;13.318;2023-04-22T11:13:16;21.60;91.70
22185;DHT22;11258;52.516;13.318;2023-04-22T11:15:45;21.50;92.60
22185;DHT22;11258;52.516;13.318;2023-04-22T11:18:19;21.70;92.90
22185;DHT22;11258;52.516;13.318;2023-04-22T11:20:46;21.70;93.30
22185;DHT22;11258;52.516;13.318;2023-04-22T11:23:18;21.60;93.10
22185;DHT22;11258;52.516;13.318;2023-04-22T11:25:43;21.60;93.00
22185;DHT22;11258;52.516;13.318;2023-04-22T11:28:09;21.50;93.30
22185;DHT22;11258;52.516;13.318;2023-04-22T11:30:35;21.40;93.50
22185;DHT22;11258;52.516;13.318;2023-04-22T11:33:01;21.50;93.50
22185;DHT22;11258;52.516;13.318;2023-04-22T11:35:29;21.60;93.20
22185;DHT22;11258;52.516;13.318;2023-04-22T11:38:01;21.60;93.10
22185;DHT22;11258;52.516;13.318;2023-04-22T11:40:40;21.80;93.40
22185;DHT22;11258;52.516;13.318;2023-04-22T11:43:07;21.60;93.20
22185;DHT22;11258;52.516;13.318;2023-04-22T11:45:35;21.70;92.60
22185;DHT22;11258;52.516;13.318;2023-04-22T11:48:02;21.70;92.40
22185;DHT22;11258;52.516;13.318;2023-04-22T11:50:31;21.90;92.70
22185;DHT22;11258;52.516;13.318;2023-04-22T11:53:00;22.00;92.40
22185;DHT22;11258;52.516;13.318;2023-04-22T11:55:31;22.00;92.00
22185;DHT22;11258;52.516;13.318;2023-04-22T11:58:08;21.90;91.40
22185;DHT22;11258;52.516;13.318;2023-04-22T12:00:35;21.90;91.60
22185;DHT22;11258;52.516;13.318;2023-04-22T12:03:37;22.00;91.00
22185;DHT22;11258;52.516;13.318;2023-04-22T12:06:03;22.00;91.10
22185;DHT22;11258;52.516;13.318;2023-04-22T12:08:34;22.20;91.20
22185;DHT22;11258;52.516;13.318;2023-04-22T12:11:03;21.90;90.50
22185;DHT22;11258;52.516;13.318;2023-04-22T12:16:05;22.30;90.50
22185;DHT22;11258;52.516;13.318;2023-04-22T12:18:35;22.20;89.80
22185;DHT22;11258;52.516;13.318;2023-04-22T12:21:12;22.00;89.80
22185;DHT22;11258;52.516;13.318;2023-04-22T12:23:52;22.10;90.00
22185;DHT22;11258;52.516;13.318;2023-04-22T12:26:19;22.00;90.10
22185;DHT22;11258;52.516;13.318;2023-04-22T12:28:46;22.00;89.20
22185;DHT22;11258;52.516;13.318;2023-04-22T12:31:15;21.80;89.20
22185;DHT22;11258;52.516;13.318;2023-04-22T12:33:41;21.80;89.30
22185;DHT22;11258;52.516;13.318;2023-04-22T12:36:08;21.80;89.50
22185;DHT22;11258;52.516;13.318;2023-04-22T12:38:34;21.90;88.90
22185;DHT22;11258;52.516;13.318;2023-04-22T12:41:01;21.90;88.90
22185;DHT22;11258;52.516;13.318;2023-04-22T12:43:27;21.80;88.70
22185;DHT22;11258;52.516;13.318;2023-04-22T12:45:53;21.80;89.60
22185;DHT22;11258;52.516;13.318;2023-04-22T12:48:18;21.70;88.80
22185;DHT22;11258;52.516;13.318;2023-04-22T12:50:44;21.70;88.90
22185;DHT22;11258;52.516;13.318;2023-04-22T12:53:10;21.60;88.70
22185;DHT22;11258;52.516;13.318;2023-04-22T12:55:35;21.70;89.00
22185;DHT22;11258;52.516;13.318;2023-04-22T12:58:01;21.60;88.20
22185;DHT22;11258;52.516;13.318;2023-04-22T13:00:27;21.70;88.40
22185;DHT22;11258;52.516;13.318;2023-04-22T13:02:52;21.90;88.40
22185;DHT22;11258;52.516;13.318;2023-04-22T13:05:18;21.90;86.50
22185;DHT22;11258;52.516;13.318;2023-04-22T13:07:45;21.90;87.00
22185;DHT22;11258;52.516;13.318;2023-04-22T13:10:15;21.80;87.30
22185;DHT22;11258;52.516;13.318;2023-04-22T13:12:42;21.90;87.70
22185;DHT22;11258;52.516;13.318;2023-04-22T13:15:08;21.80;87.60
22185;DHT22;11258;52.516;13.318;2023-04-22T13:17:34;21.70;87.90
22185;DHT22;11258;52.516;13.318;2023-04-22T13:20:01;21.70;88.60
22185;DHT22;11258;52.516;13.318;2023-04-22T13:22:26;21.80;88.80
22185;DHT22;11258;52.516;13.318;2023-04-22T13:24:52;21.80;89.10
22185;DHT22;11258;52.516;13.318;2023-04-22T13:27:18;21.80;89.10
22185;DHT22;11258;52.516;13.318;2023-04-22T13:29:44;21.90;89.10
22185;DHT22;11258;52.516;13.318;2023-04-22T13:32:10;21.90;88.90
22185;DHT22;11258;52.516;13.318;2023-04-22T13:34:37;21.90;89.10
22185;DHT22;11258;52.516;13.318;2023-04-22T13:37:02;21.90;89.80
22185;DHT22;11258;52.516;13.318;2023-04-22T13:39:28;21.90;90.10
22185;DHT22;11258;52.516;13.318;2023-04-22T13:41:53;21.90;90.30
22185;DHT22;11258;52.516;13.318;2023-04-22T13:44:19;22.00;90.50
22185;DHT22;11258;52.516;13.318;2023-04-22T13:46:45;22.00;90.40
22185;DHT22;11258;52.516;13.318;2023-04-22T13:49:11;22.10;90.60
22185;DHT22;11258;52.516;13.318;2023-04-22T13:51:37;22.10;90.50
22185;DHT22;11258;52.516;13.318;2023-04-22T13:54:03;22.20;90.60
22185;DHT22;11258;52.516;13.318;2023-04-22T13:56:29;22.20;90.70
22185;DHT22;11258;52.516;13.318;2023-04-22T13:58:55;22.20;90.70
22185;DHT22;11258;52.516;13.318;2023-04-22T14:01:21;22.20;90.60
22185;DHT22;11258;52.516;13.318;2023-04-22T14:03:47;22.10;90.60
22185;DHT22;11258;52.516;13.318;2023-04-22T14:06:14;22.10;90.60
22185;DHT22;11258;52.516;13.318;2023-04-22T14:08:40;22.00;90.70
22185;DHT22;11258;52.516;13.318;2023-04-22T14:11:06;22.00;90.70
22185;DHT22;11258;52.516;13.318;2023-04-22T14:13:32;22.00;90.90
22185;DHT22;11258;52.516;13.318;2023-04-22T14:15:58;21.90;90.70
22185;DHT22;11258;52.516;13.318;2023-04-22T14:18:24;21.90;90.80
22185;DHT22;11258;52.516;13.318;2023-04-22T14:20:51;22.00;91.10
22185;DHT22;11258;52.516;13.318;2023-04-22T14:23:17;22.20;90.70
22185;DHT22;11258;52.516;13.318;2023-04-22T14:25:45;22.20;90.30
22185;DHT22;11258;52.516;13.318;2023-04-22T14:28:14;22.10;90.30
22185;DHT22;11258;52.516;13.318;2023-04-22T14:30:41;22.20;90.60
22185;DHT22;11258;52.516;13.318;2023-04-22T14:33:07;22.10;90.20
22185;DHT22;11258;52.516;13.318;2023-04-22T14:35:34;22.20;90.30
22185;DHT22;11258;52.516;13.318;2023-04-22T14:38:02;22.10;90.20
22185;DHT22;11258;52.516;13.318;2023-04-22T14:40:28;22.10;90.00
22185;DHT22;11258;52.516;13.318;2023-04-22T14:42:55;22.20;90.00
22185;DHT22;11258;52.516;13.318;2023-04-22T14:45:22;22.10;89.40
22185;DHT22;11258;52.516;13.318;2023-04-22T14:47:48;22.20;90.00
22185;DHT22;11258;52.516;13.318;2023-04-22T14:50:14;22.30;89.00
22185;DHT22;11258;52.516;13.318;2023-04-22T14:52:39;22.30;88.80
22185;DHT22;11258;52.516;13.318;2023-04-22T14:55:05;22.30;88.80
22185;DHT22;11258;52.516;13.318;2023-04-22T14:57:31;22.40;89.50
22185;DHT22;11258;52.516;13.318;2023-04-22T14:59:56;22.30;89.80
22185;DHT22;11258;52.516;13.318;2023-04-22T15:02:22;22.30;90.00
22185;DHT22;11258;52.516;13.318;2023-04-22T15:04:48;22.30;90.20
22185;DHT22;11258;52.516;13.318;2023-04-22T15:07:14;22.30;89.90
22185;DHT22;11258;52.516;13.318;2023-04-22T15:09:39;22.20;89.70
22185;DHT22;11258;52.516;13.318;2023-04-22T15:12:05;22.20;90.00
22185;DHT22;11258;52.516;13.318;2023-04-22T15:14:34;22.20;90.20
22185;DHT22;11258;52.516;13.318;2023-04-22T15:17:01;22.10;90.30
22185;DHT22;11258;52.516;13.318;2023-04-22T15:19:27;22.20;90.30
22185;DHT22;11258;52.516;13.318;2023-04-22T15:21:52;22.20;89.90